Time;durP1;ratioP1;P1;durP2;ratioP2;P2;SDS_P1;SDS_P2;PMS_P1;PMS_P2;Temp;Humidity;BMP_temperature;BMP_pressure;BME280_temperature;BME280_humidity;BME280_pressure;Samples;Min_cycle;Max_cycle;Signal;HPM_P1;HPM_P2
2024/01/19 00:00:20;;;;;;;74.95;70.93;;;;;;;;;;5075507;28;20509;-69
2024/01/19 00:02:50;;;;;;;73.38;69.40;;;;;;;;;;5065025;28;20431;-69
2024/01/19 00:05:20;;;;;;;74.50;70.50;;;;;;;;;;5063453;28;20438;-69
2024/01/19 00:07:47;;;;;;;79.03;74.53;;;;;;;;;;5064307;28;20878;-69
2024/01/19 00:10:14;;;;;;;64.10;60.55;;;;;;;;;;5072259;28;20837;-69
2024/01/19 00:12:41;;;;;;;70.10;66.00;;;;;;;;;;5071076;28;20949;-69
2024/01/19 00:15:09;;;;;;;65.43;61.92;;;;;;;;;;5066609;28;20439;-70
2024/01/19 00:17:36;;;;;;;64.38;60.88;;;;;;;;;;5074422;28;20433;-69
2024/01/19 00:20:06;;;;;;;75.35;71.25;;;;;;;;;;5070062;28;20433;-69
2024/01/19 00:22:33;;;;;;;73.00;69.00;;;;;;;;;;5073321;28;20884;-70
2024/01/19 00:25:00;;;;;;;76.65;72.53;;;;;;;;;;5070093;28;20427;-69
2024/01/19 00:27:29;;;;;;;71.50;67.63;;;;;;;;;;5079387;28;20479;-70
2024/01/19 00:29:56;;;;;;;55.13;52.05;;;;;;;;;;5076178;28;20435;-69
2024/01/19 00:32:29;;;;;;;67.65;63.42;;;;;;;;;;5073888;28;20447;-70
2024/01/19 00:34:56;;;;;;;66.70;63.10;;;;;;;;;;5067723;28;20425;-69
2024/01/19 00:37:23;;;;;;;70.93;67.03;;;;;;;;;;5060303;28;21111;-70
2024/01/19 00:39:50;;;;;;;62.33;58.92;;;;;;;;;;5061649;28;20438;-70
2024/01/19 00:42:17;;;;;;;64.57;61.08;;;;;;;;;;5069673;28;20758;-69
2024/01/19 00:44:45;;;;;;;68.70;64.90;;;;;;;;;;5072968;28;20422;-70
2024/01/19 00:47:12;;;;;;;66.60;62.70;;;;;;;;;;5059096;28;20507;-70
2024/01/19 00:49:39;;;;;;;69.07;65.28;;;;;;;;;;5059365;28;20419;-70
2024/01/19 00:52:06;;;;;;;73.78;69.68;;;;;;;;;;5063458;28;20474;-70
2024/01/19 00:54:34;;;;;;;70.80;66.90;;;;;;;;;;5062273;28;20555;-70
2024/01/19 00:57:02;;;;;;;71.97;68.07;;;;;;;;;;5068698;28;20439;-70
2024/01/19 00:59:29;;;;;;;74.18;70.18;;;;;;;;;;5066434;28;20446;-70
2024/01/19 01:01:56;;;;;;;76.22;72.15;;;;;;;;;;5069036;28;20438;-70
2024/01/19 01:04:23;;;;;;;82.38;77.88;;;;;;;;;;5059928;28;20469;-70
2024/01/19 01:06:50;;;;;;;76.15;72.05;;;;;;;;;;5073881;28;20911;-71
2024/01/19 01:09:18;;;;;;;79.07;74.88;;;;;;;;;;5064635;28;21109;-71
2024/01/19 01:11:51;;;;;;;86.90;82.38;;;;;;;;;;5067126;28;20423;-71
2024/01/19 01:14:18;;;;;;;82.37;77.97;;;;;;;;;;5065547;28;20434;-71
2024/01/19 01:16:49;;;;;;;87.55;82.88;;;;;;;;;;5080670;28;20428;-71
2024/01/19 01:19:17;;;;;;;89.90;85.20;;;;;;;;;;5075598;28;20432;-71
2024/01/19 01:21:44;;;;;;;89.70;85.00;;;;;;;;;;5070096;28;20467;-71
2024/01/19 01:24:11;;;;;;;90.18;85.38;;;;;;;;;;5066752;28;20817;-71
2024/01/19 01:26:38;;;;;;;93.78;88.88;;;;;;;;;;5075476;28;20463;-71
2024/01/19 01:29:05;;;;;;;96.88;91.80;;;;;;;;;;5061821;28;20957;-71
2024/01/19 01:31:33;;;;;;;97.22;92.13;;;;;;;;;;5076972;28;20749;-71
2024/01/19 01:34:00;;;;;;;98.65;93.35;;;;;;;;;;5074035;28;20437;-71
2024/01/19 01:36:27;;;;;;;96.78;91.70;;;;;;;;;;5065043;28;20435;-71
2024/01/19 01:38:54;;;;;;;100.75;95.43;;;;;;;;;;5067244;28;20609;-71
2024/01/19 01:41:27;;;;;;;104.88;99.38;;;;;;;;;;5067616;28;20431;-71
2024/01/19 01:43:54;;;;;;;103.38;97.93;;;;;;;;;;5064738;28;20452;-71
2024/01/19 01:46:22;;;;;;;103.53;97.97;;;;;;;;;;5070593;28;20427;-71
2024/01/19 01:48:49;;;;;;;99.32;94.00;;;;;;;;;;5072263;28;20977;-71
2024/01/19 01:51:16;;;;;;;114.23;107.23;;;;;;;;;;5065195;28;20434;-72
2024/01/19 01:53:44;;;;;;;97.15;91.88;;;;;;;;;;5073760;28;20494;-71
2024/01/19 01:56:11;;;;;;;101.65;95.80;;;;;;;;;;5076808;28;20433;-71
2024/01/19 01:58:41;;;;;;;101.55;96.22;;;;;;;;;;5066779;28;20508;-71
2024/01/19 02:01:08;;;;;;;98.65;93.45;;;;;;;;;;5078793;28;20453;-71
2024/01/19 02:03:37;;;;;;;101.43;96.07;;;;;;;;;;5055282;28;20455;-71
2024/01/19 02:06:04;;;;;;;102.95;97.53;;;;;;;;;;5073792;28;20483;-72
2024/01/19 02:08:32;;;;;;;100.45;95.20;;;;;;;;;;5069077;28;20438;-72
2024/01/19 02:10:59;;;;;;;104.28;98.80;;;;;;;;;;5072626;28;20427;-71
2024/01/19 02:13:26;;;;;;;114.80;108.82;;;;;;;;;;5068096;28;20429;-72
2024/01/19 02:15:55;;;;;;;109.68;103.97;;;;;;;;;;5068417;28;20432;-72
2024/01/19 02:18:25;;;;;;;109.78;104.03;;;;;;;;;;5071862;28;20837;-71
2024/01/19 02:20:53;;;;;;;106.20;100.70;;;;;;;;;;5075164;28;21016;-71
2024/01/19 02:23:25;;;;;;;104.47;98.82;;;;;;;;;;5088216;28;20479;-71
2024/01/19 02:25:52;;;;;;;105.10;99.65;;;;;;;;;;5071361;28;20427;-72
2024/01/19 02:28:20;;;;;;;106.20;100.65;;;;;;;;;;5067688;28;20430;-72
2024/01/19 02:30:47;;;;;;;106.78;101.22;;;;;;;;;;5074355;28;20504;-71
2024/01/19 02:33:14;;;;;;;111.68;105.40;;;;;;;;;;5069044;28;20442;-72
2024/01/19 02:35:42;;;;;;;110.50;104.78;;;;;;;;;;5075141;28;20432;-72
2024/01/19 02:38:09;;;;;;;120.40;114.10;;;;;;;;;;5065601;28;20787;-72
2024/01/19 02:40:36;;;;;;;117.63;111.63;;;;;;;;;;5072307;28;20676;-72
2024/01/19 02:43:04;;;;;;;114.10;108.15;;;;;;;;;;5079258;28;20947;-72
2024/01/19 02:45:34;;;;;;;116.55;110.50;;;;;;;;;;5072379;28;20468;-71
2024/01/19 02:48:01;;;;;;;116.43;110.38;;;;;;;;;;5065115;28;20489;-72
2024/01/19 02:50:28;;;;;;;114.13;108.13;;;;;;;;;;5065715;28;20428;-73
2024/01/19 02:52:55;;;;;;;114.43;108.47;;;;;;;;;;5067907;28;20503;-72
2024/01/19 02:55:26;;;;;;;114.32;108.40;;;;;;;;;;5068965;28;20463;-72
2024/01/19 02:57:53;;;;;;;112.43;106.55;;;;;;;;;;5071923;28;20497;-72
2024/01/19 03:00:20;;;;;;;116.25;110.20;;;;;;;;;;5078845;28;20461;-72
2024/01/19 03:02:47;;;;;;;121.57;115.22;;;;;;;;;;5069929;28;20508;-73
2024/01/19 03:05:15;;;;;;;119.32;112.93;;;;;;;;;;5071339;28;20730;-73
2024/01/19 03:07:42;;;;;;;117.03;110.93;;;;;;;;;;5062884;28;20516;-73
2024/01/19 03:10:09;;;;;;;119.00;112.75;;;;;;;;;;5069749;28;20448;-73
2024/01/19 03:12:37;;;;;;;115.07;109.10;;;;;;;;;;5069007;28;20794;-73
2024/01/19 03:15:04;;;;;;;118.65;112.45;;;;;;;;;;5076354;28;20433;-73
2024/01/19 03:17:34;;;;;;;116.32;110.38;;;;;;;;;;5069858;28;20462;-72
2024/01/19 03:20:05;;;;;;;110.65;104.90;;;;;;;;;;5075985;28;20432;-73
2024/01/19 03:22:33;;;;;;;113.47;107.38;;;;;;;;;;5068618;28;20537;-73
2024/01/19 03:25:01;;;;;;;112.40;106.55;;;;;;;;;;5076090;28;20435;-73
2024/01/19 03:27:28;;;;;;;114.75;108.75;;;;;;;;;;5072807;28;20439;-72
2024/01/19 03:29:56;;;;;;;112.03;106.22;;;;;;;;;;5072708;28;20427;-73
2024/01/19 03:32:23;;;;;;;110.97;105.18;;;;;;;;;;5068897;28;20509;-73
2024/01/19 03:34:50;;;;;;;110.93;105.13;;;;;;;;;;5072971;28;20937;-72
2024/01/19 03:37:20;;;;;;;112.27;106.37;;;;;;;;;;5076181;28;20514;-73
2024/01/19 03:39:47;;;;;;;111.30;105.40;;;;;;;;;;5065285;28;20443;-73
2024/01/19 03:42:14;;;;;;;112.03;106.05;;;;;;;;;;5064751;28;20431;-73
2024/01/19 03:44:44;;;;;;;111.60;105.73;;;;;;;;;;5075363;28;20422;-73
2024/01/19 03:47:12;;;;;;;109.30;103.60;;;;;;;;;;5066162;28;20431;-73
2024/01/19 03:49:43;;;;;;;110.32;104.57;;;;;;;;;;5061667;28;20565;-73
2024/01/19 03:52:10;;;;;;;110.68;104.90;;;;;;;;;;5062550;28;20431;-73
2024/01/19 03:54:38;;;;;;;110.00;104.27;;;;;;;;;;5075449;28;20436;-73
2024/01/19 03:57:06;;;;;;;107.57;101.97;;;;;;;;;;5067876;28;20485;-72
2024/01/19 03:59:34;;;;;;;109.88;104.15;;;;;;;;;;5067544;28;20428;-73
2024/01/19 04:02:01;;;;;;;111.72;105.88;;;;;;;;;;5068039;28;20470;-73
2024/01/19 04:04:29;;;;;;;110.20;104.43;;;;;;;;;;5074894;28;20870;-73
2024/01/19 04:06:56;;;;;;;108.82;103.10;;;;;;;;;;5058400;28;20435;-73
2024/01/19 04:09:23;;;;;;;106.43;100.93;;;;;;;;;;5064965;28;20858;-73
2024/01/19 04:11:51;;;;;;;105.43;99.95;;;;;;;;;;5068411;28;20427;-73
2024/01/19 04:14:18;;;;;;;108.43;102.78;;;;;;;;;;5068718;28;20434;-73
2024/01/19 04:16:45;;;;;;;108.20;102.53;;;;;;;;;;5068507;28;20429;-72
2024/01/19 04:19:12;;;;;;;108.22;102.63;;;;;;;;;;5063201;28;21212;-73
2024/01/19 04:21:40;;;;;;;110.97;105.28;;;;;;;;;;5071094;28;20423;-73
2024/01/19 04:24:07;;;;;;;105.28;99.88;;;;;;;;;;5070094;28;20608;-73
2024/01/19 04:26:37;;;;;;;103.38;98.03;;;;;;;;;;5068832;28;20786;-73
2024/01/19 04:29:04;;;;;;;106.57;100.97;;;;;;;;;;5068218;28;20430;-73
2024/01/19 04:31:32;;;;;;;108.97;103.28;;;;;;;;;;5075384;28;20421;-73
2024/01/19 04:33:59;;;;;;;107.82;102.20;;;;;;;;;;5069162;28;20484;-73
2024/01/19 04:36:26;;;;;;;111.35;105.55;;;;;;;;;;5072922;28;20453;-73
2024/01/19 04:38:53;;;;;;;112.07;106.30;;;;;;;;;;5065585;28;20466;-73
2024/01/19 04:41:21;;;;;;;106.82;101.18;;;;;;;;;;5067588;28;20438;-74
2024/01/19 04:43:48;;;;;;;111.32;105.55;;;;;;;;;;5064761;28;20431;-73
2024/01/19 04:46:15;;;;;;;112.38;106.38;;;;;;;;;;5061453;28;20437;-73
2024/01/19 04:48:44;;;;;;;109.95;104.22;;;;;;;;;;5063156;28;20423;-73
2024/01/19 04:51:11;;;;;;;106.95;101.43;;;;;;;;;;5067665;28;20525;-73
2024/01/19 04:53:39;;;;;;;65.65;61.92;;;;;;;;;;5069134;28;20438;-73
2024/01/19 04:56:07;;;;;;;66.15;62.50;;;;;;;;;;5066798;28;20431;-73
2024/01/19 04:58:35;;;;;;;75.60;71.45;;;;;;;;;;5066292;28;20431;-72
2024/01/19 05:01:03;;;;;;;80.10;75.82;;;;;;;;;;5065765;28;20431;-73
2024/01/19 05:03:30;;;;;;;79.88;75.63;;;;;;;;;;5061857;28;20439;-73
2024/01/19 05:05:58;;;;;;;81.00;76.63;;;;;;;;;;5077817;28;20475;-73
2024/01/19 05:08:26;;;;;;;86.95;82.25;;;;;;;;;;5066782;28;20418;-73
2024/01/19 05:10:54;;;;;;;89.13;84.32;;;;;;;;;;5068942;28;20512;-74
2024/01/19 05:13:21;;;;;;;88.45;83.68;;;;;;;;;;5085527;28;20785;-74
2024/01/19 05:15:48;;;;;;;84.28;79.75;;;;;;;;;;5075537;28;20553;-74
2024/01/19 05:18:18;;;;;;;88.13;83.50;;;;;;;;;;5070718;28;20436;-73
2024/01/19 05:20:45;;;;;;;98.78;93.65;;;;;;;;;;5069147;28;20520;-74
2024/01/19 05:23:12;;;;;;;99.88;94.60;;;;;;;;;;5069623;28;20438;-73
2024/01/19 05:25:39;;;;;;;96.03;91.00;;;;;;;;;;5064547;28;20522;-74
2024/01/19 05:28:10;;;;;;;67.33;63.67;;;;;;;;;;5063276;28;21090;-74
2024/01/19 05:30:37;;;;;;;77.65;73.22;;;;;;;;;;5063452;28;20432;-74
2024/01/19 05:33:07;;;;;;;74.03;70.03;;;;;;;;;;5068255;28;20475;-73
2024/01/19 05:35:35;;;;;;;75.72;71.65;;;;;;;;;;5065787;28;20439;-74
2024/01/19 05:38:03;;;;;;;99.15;93.15;;;;;;;;;;5064779;28;20463;-73
2024/01/19 05:40:30;;;;;;;78.75;74.55;;;;;;;;;;5060677;28;20492;-73
2024/01/19 05:42:57;;;;;;;84.10;79.65;;;;;;;;;;5059609;28;21111;-74
2024/01/19 05:45:24;;;;;;;79.28;75.03;;;;;;;;;;5069657;28;20427;-74
2024/01/19 05:47:51;;;;;;;75.18;71.10;;;;;;;;;;5067626;28;20463;-73
2024/01/19 05:50:19;;;;;;;96.55;91.50;;;;;;;;;;5065496;28;20429;-74
2024/01/19 05:52:46;;;;;;;88.80;84.10;;;;;;;;;;5074942;28;20426;-74
2024/01/19 05:55:15;;;;;;;82.13;77.72;;;;;;;;;;5070733;28;20940;-73
2024/01/19 05:57:43;;;;;;;82.60;78.18;;;;;;;;;;5064618;28;20531;-74
2024/01/19 06:00:10;;;;;;;84.82;80.38;;;;;;;;;;5066754;28;20431;-74
2024/01/19 06:02:37;;;;;;;87.78;83.07;;;;;;;;;;5059021;28;20951;-74
2024/01/19 06:05:05;;;;;;;81.38;77.03;;;;;;;;;;5066212;28;20542;-72
2024/01/19 06:07:33;;;;;;;67.57;63.88;;;;;;;;;;5067460;28;20445;-72
2024/01/19 06:10:00;;;;;;;88.50;83.67;;;;;;;;;;5068657;28;20423;-72
2024/01/19 06:12:29;;;;;;;89.85;84.95;;;;;;;;;;5070874;28;20802;-73
2024/01/19 06:14:59;;;;;;;97.00;91.77;;;;;;;;;;5076110;28;20431;-72
2024/01/19 06:17:27;;;;;;;102.57;97.07;;;;;;;;;;5078817;28;20439;-72
2024/01/19 06:19:57;;;;;;;97.30;92.20;;;;;;;;;;5068973;28;20938;-73
2024/01/19 06:22:24;;;;;;;93.15;88.28;;;;;;;;;;5072646;28;20914;-73
2024/01/19 06:24:52;;;;;;;94.73;89.73;;;;;;;;;;5068593;28;20431;-73
2024/01/19 06:27:22;;;;;;;75.95;71.90;;;;;;;;;;5070927;28;20428;-73
2024/01/19 06:29:49;;;;;;;54.63;51.58;;;;;;;;;;5071122;28;20441;-73
2024/01/19 06:32:16;;;;;;;64.30;60.60;;;;;;;;;;5056718;28;20427;-73
2024/01/19 06:34:44;;;;;;;78.57;74.10;;;;;;;;;;5067612;28;20423;-73
2024/01/19 06:37:11;;;;;;;95.47;90.57;;;;;;;;;;5071574;28;20510;-73
2024/01/19 06:39:39;;;;;;;80.70;76.28;;;;;;;;;;5073798;28;20473;-74
2024/01/19 06:42:06;;;;;;;81.95;77.63;;;;;;;;;;5065396;28;20439;-73
2024/01/19 06:44:33;;;;;;;81.10;76.50;;;;;;;;;;5068118;28;20427;-73
2024/01/19 06:47:01;;;;;;;57.75;54.55;;;;;;;;;;5083777;28;20436;-73
2024/01/19 06:49:28;;;;;;;59.83;56.33;;;;;;;;;;5077331;28;20427;-73
2024/01/19 06:51:56;;;;;;;61.30;57.90;;;;;;;;;;5060600;28;20896;-73
2024/01/19 06:54:25;;;;;;;66.63;62.93;;;;;;;;;;5069185;28;20806;-73
2024/01/19 06:56:53;;;;;;;80.35;75.22;;;;;;;;;;5069023;28;20439;-74
2024/01/19 06:59:20;;;;;;;77.22;72.97;;;;;;;;;;5061692;28;21251;-73
2024/01/19 07:01:55;;;;;;;86.70;82.03;;;;;;;;;;5070615;28;20855;-74
2024/01/19 07:04:22;;;;;;;85.55;80.53;;;;;;;;;;5073738;28;20865;-73
2024/01/19 07:06:50;;;;;;;83.03;78.50;;;;;;;;;;5060906;28;20437;-74
2024/01/19 07:09:20;;;;;;;83.93;79.25;;;;;;;;;;5063660;28;20427;-71
2024/01/19 07:11:50;;;;;;;89.00;84.25;;;;;;;;;;5065303;28;20447;-74
2024/01/19 07:14:19;;;;;;;89.07;84.25;;;;;;;;;;5065896;28;20435;-74
2024/01/19 07:16:47;;;;;;;88.25;83.45;;;;;;;;;;5067250;28;20458;-74
2024/01/19 07:19:14;;;;;;;87.82;83.05;;;;;;;;;;5074084;28;20430;-74
2024/01/19 07:21:41;;;;;;;83.65;79.20;;;;;;;;;;5071762;28;20559;-74
2024/01/19 07:24:09;;;;;;;87.68;83.05;;;;;;;;;;5069742;28;20489;-74
2024/01/19 07:26:37;;;;;;;90.25;85.25;;;;;;;;;;5075205;28;20852;-74
2024/01/19 07:29:06;;;;;;;91.32;86.53;;;;;;;;;;5068066;28;20440;-74
2024/01/19 07:31:34;;;;;;;86.93;82.25;;;;;;;;;;5070655;28;20427;-74
2024/01/19 07:34:01;;;;;;;87.68;82.95;;;;;;;;;;5073455;28;20486;-74
2024/01/19 07:36:28;;;;;;;90.40;85.53;;;;;;;;;;5077702;28;20436;-74
2024/01/19 07:38:56;;;;;;;87.55;82.82;;;;;;;;;;5078235;28;20431;-74
2024/01/19 07:41:26;;;;;;;97.25;92.05;;;;;;;;;;5068651;28;20443;-74
2024/01/19 07:43:54;;;;;;;97.53;92.33;;;;;;;;;;5068546;28;21101;-74
2024/01/19 07:46:22;;;;;;;91.53;86.63;;;;;;;;;;5059308;28;20439;-75
2024/01/19 07:48:49;;;;;;;92.93;88.00;;;;;;;;;;5069641;28;20427;-75
2024/01/19 07:51:18;;;;;;;89.35;84.65;;;;;;;;;;5077957;28;20485;-75
2024/01/19 07:53:45;;;;;;;94.50;89.50;;;;;;;;;;5068728;28;20453;-74
2024/01/19 07:56:13;;;;;;;97.47;92.30;;;;;;;;;;5074318;28;20939;-74
2024/01/19 07:58:43;;;;;;;95.75;90.70;;;;;;;;;;5061760;28;20463;-75
2024/01/19 08:01:11;;;;;;;84.07;79.55;;;;;;;;;;5067056;28;20431;-75
2024/01/19 08:03:39;;;;;;;79.88;75.47;;;;;;;;;;5071254;28;20439;-75
2024/01/19 08:06:09;;;;;;;58.83;55.53;;;;;;;;;;5068440;28;20423;-75
2024/01/19 08:08:36;;;;;;;88.70;84.00;;;;;;;;;;5066575;28;20474;-75
2024/01/19 08:11:04;;;;;;;62.05;58.65;;;;;;;;;;5068495;28;20453;-74
2024/01/19 08:13:31;;;;;;;58.40;55.20;;;;;;;;;;5068076;28;20928;-75
2024/01/19 08:15:58;;;;;;;64.55;61.13;;;;;;;;;;5067287;28;20513;-74
2024/01/19 08:18:25;;;;;;;63.28;59.83;;;;;;;;;;5069409;28;20475;-74
2024/01/19 08:21:00;;;;;;;47.72;45.17;;;;;;;;;;5068378;28;21166;-75
2024/01/19 08:23:30;;;;;;;39.47;37.08;;;;;;;;;;5066396;28;20431;-75
2024/01/19 08:25:57;;;;;;;38.17;36.17;;;;;;;;;;5072743;28;20939;-75
2024/01/19 08:28:30;;;;;;;41.25;38.85;;;;;;;;;;5077766;28;20501;-75
2024/01/19 08:30:57;;;;;;;39.58;37.47;;;;;;;;;;5075375;28;20422;-75
2024/01/19 08:33:25;;;;;;;42.17;39.90;;;;;;;;;;5074337;28;20431;-75
2024/01/19 08:35:54;;;;;;;41.65;39.45;;;;;;;;;;5078488;28;20849;-75
2024/01/19 08:38:22;;;;;;;40.05;37.88;;;;;;;;;;5074734;28;20498;-75
2024/01/19 08:40:49;;;;;;;29.63;28.00;;;;;;;;;;5086071;28;20525;-75
2024/01/19 08:43:16;;;;;;;36.42;34.40;;;;;;;;;;5077340;28;20433;-75
2024/01/19 08:45:46;;;;;;;41.53;38.92;;;;;;;;;;5068637;28;20438;-74
2024/01/19 08:48:15;;;;;;;43.55;41.15;;;;;;;;;;5077252;28;20931;-75
2024/01/19 08:50:44;;;;;;;42.25;39.95;;;;;;;;;;5073942;28;20426;-75
2024/01/19 08:53:11;;;;;;;77.40;73.30;;;;;;;;;;5071550;28;20427;-74
2024/01/19 08:55:42;;;;;;;86.43;81.78;;;;;;;;;;5080671;28;20459;-75
2024/01/19 08:58:09;;;;;;;93.57;88.57;;;;;;;;;;5069894;28;20435;-75
2024/01/19 09:00:36;;;;;;;77.32;73.15;;;;;;;;;;5063663;28;20465;-75
2024/01/19 09:03:06;;;;;;;64.93;61.42;;;;;;;;;;5064611;28;20890;-76
2024/01/19 09:05:45;;;;;;;85.80;81.28;;;;;;;;;;5074800;28;20435;-75
2024/01/19 09:08:13;;;;;;;72.32;68.45;;;;;;;;;;5071921;28;20423;-75
2024/01/19 09:10:40;;;;;;;89.18;84.07;;;;;;;;;;5067754;28;20879;-75
2024/01/19 09:13:07;;;;;;;101.40;96.13;;;;;;;;;;5073380;28;20433;-75
2024/01/19 09:15:38;;;;;;;103.00;97.70;;;;;;;;;;5078858;28;20523;-75
2024/01/19 09:18:11;;;;;;;107.80;102.07;;;;;;;;;;5056392;28;20429;-75
2024/01/19 09:20:39;;;;;;;93.25;88.38;;;;;;;;;;5071556;28;20486;-76
2024/01/19 09:23:06;;;;;;;58.92;55.53;;;;;;;;;;5074042;28;20423;-75
2024/01/19 09:25:33;;;;;;;76.95;72.25;;;;;;;;;;5075625;28;20438;-76
2024/01/19 09:28:03;;;;;;;67.63;63.93;;;;;;;;;;5088448;28;20452;-75
2024/01/19 09:30:30;;;;;;;65.45;61.83;;;;;;;;;;5088033;28;20437;-75
2024/01/19 09:33:00;;;;;;;70.72;66.72;;;;;;;;;;5077037;28;20433;-75
2024/01/19 09:35:28;;;;;;;94.27;89.07;;;;;;;;;;5066209;28;20425;-75
2024/01/19 09:37:58;;;;;;;99.10;93.78;;;;;;;;;;5080524;28;20453;-75
2024/01/19 09:40:25;;;;;;;102.05;96.45;;;;;;;;;;5074835;28;20427;-75
2024/01/19 09:42:57;;;;;;;104.78;99.18;;;;;;;;;;5064762;28;20961;-75
2024/01/19 09:45:26;;;;;;;102.07;96.43;;;;;;;;;;5074953;28;20985;-75
2024/01/19 09:48:03;;;;;;;99.32;94.13;;;;;;;;;;5067388;28;20455;-75
2024/01/19 09:50:34;;;;;;;84.82;79.97;;;;;;;;;;5080857;28;20431;-76
2024/01/19 09:53:24;;;;;;;84.80;80.30;;;;;;;;;;5075764;28;20430;-76
2024/01/19 09:55:51;;;;;;;90.28;85.22;;;;;;;;;;5068280;28;20452;-75
2024/01/19 09:58:22;;;;;;;97.13;91.82;;;;;;;;;;5081485;28;20429;-76
2024/01/19 10:00:51;;;;;;;104.55;98.90;;;;;;;;;;5078252;28;20438;-75
2024/01/19 10:03:18;;;;;;;83.30;78.80;;;;;;;;;;5073743;28;20913;-76
2024/01/19 10:05:48;;;;;;;69.45;65.55;;;;;;;;;;5070177;28;20946;-76
2024/01/19 10:08:18;;;;;;;58.17;55.03;;;;;;;;;;5075815;28;20429;-77
2024/01/19 10:10:46;;;;;;;53.38;50.15;;;;;;;;;;5069225;28;20433;-77
2024/01/19 10:13:13;;;;;;;53.47;50.50;;;;;;;;;;5072538;28;20805;-77
2024/01/19 10:15:43;;;;;;;65.65;61.75;;;;;;;;;;5073119;28;20427;-77
2024/01/19 10:18:14;;;;;;;75.80;71.63;;;;;;;;;;5071459;28;20455;-77
2024/01/19 10:20:44;;;;;;;91.22;86.40;;;;;;;;;;5076663;28;20424;-77
2024/01/19 10:23:18;;;;;;;103.68;98.15;;;;;;;;;;5078349;28;20427;-77
2024/01/19 10:25:45;;;;;;;106.18;100.32;;;;;;;;;;5071832;28;20434;-76
2024/01/19 10:28:28;;;;;;;111.32;105.25;;;;;;;;;;5070471;28;20488;-76
2024/01/19 10:31:12;;;;;;;108.45;102.60;;;;;;;;;;5076448;28;21114;-77
2024/01/19 10:33:52;;;;;;;114.10;107.57;;;;;;;;;;5076358;28;20434;-76
2024/01/19 10:36:23;;;;;;;112.03;106.05;;;;;;;;;;5079953;28;20771;-77
2024/01/19 10:38:53;;;;;;;79.93;75.63;;;;;;;;;;5075205;28;20438;-77
2024/01/19 10:41:26;;;;;;;96.05;91.03;;;;;;;;;;5069922;28;20470;-76
2024/01/19 10:43:53;;;;;;;107.93;102.32;;;;;;;;;;5075702;28;20474;-77
2024/01/19 10:46:22;;;;;;;79.05;74.55;;;;;;;;;;5080219;28;20439;-77
2024/01/19 10:48:53;;;;;;;87.23;82.53;;;;;;;;;;5068860;28;20524;-77
2024/01/19 10:51:21;;;;;;;91.72;86.93;;;;;;;;;;5066030;28;20507;-77
2024/01/19 10:53:49;;;;;;;60.50;56.90;;;;;;;;;;5072613;28;20439;-77
2024/01/19 10:56:20;;;;;;;80.00;75.32;;;;;;;;;;5077381;28;20510;-77
2024/01/19 10:58:48;;;;;;;97.07;91.53;;;;;;;;;;5073304;28;20437;-77
2024/01/19 11:01:16;;;;;;;108.15;102.50;;;;;;;;;;5078671;28;20438;-76
2024/01/19 11:03:44;;;;;;;95.88;90.78;;;;;;;;;;5068349;28;20440;-76
2024/01/19 11:06:12;;;;;;;74.90;70.88;;;;;;;;;;5069679;28;20914;-77
2024/01/19 11:08:39;;;;;;;83.05;78.25;;;;;;;;;;5074687;28;20432;-76
2024/01/19 11:11:07;;;;;;;94.72;89.53;;;;;;;;;;5070403;28;20790;-76
2024/01/19 11:13:42;;;;;;;69.53;65.57;;;;;;;;;;5065781;28;20511;-76
2024/01/19 11:16:21;;;;;;;90.40;85.60;;;;;;;;;;5077521;28;20434;-76
2024/01/19 11:18:48;;;;;;;96.50;91.10;;;;;;;;;;5080579;28;20431;-77
2024/01/19 11:21:16;;;;;;;98.67;93.40;;;;;;;;;;5070902;28;21250;-76
2024/01/19 11:23:46;;;;;;;108.22;102.53;;;;;;;;;;5073029;28;20522;-76
2024/01/19 11:26:34;;;;;;;117.60;111.30;;;;;;;;;;5070420;28;20436;-76
2024/01/19 11:29:04;;;;;;;114.80;108.20;;;;;;;;;;5063457;28;20540;-75
2024/01/19 11:31:35;;;;;;;116.47;110.10;;;;;;;;;;5076670;28;20427;-75
2024/01/19 11:34:02;;;;;;;112.82;106.63;;;;;;;;;;5069625;28;20513;-75
2024/01/19 11:36:39;;;;;;;111.07;104.60;;;;;;;;;;5073987;28;20450;-75
2024/01/19 11:39:06;;;;;;;100.50;94.97;;;;;;;;;;5068830;28;20458;-75
2024/01/19 11:41:33;;;;;;;113.97;107.60;;;;;;;;;;5076331;28;20433;-75
2024/01/19 11:44:07;;;;;;;118.82;112.30;;;;;;;;;;5051273;28;20438;-75
2024/01/19 11:46:42;;;;;;;103.15;97.47;;;;;;;;;;5075821;28;20432;-75
2024/01/19 11:49:38;;;;;;;82.75;77.50;;;;;;;;;;5065721;28;20431;-75
2024/01/19 11:52:09;;;;;;;95.15;89.82;;;;;;;;;;5068713;28;20429;-75
2024/01/19 11:54:37;;;;;;;87.43;82.35;;;;;;;;;;5071693;28;20438;-75
2024/01/19 11:57:16;;;;;;;96.70;91.20;;;;;;;;;;5075618;28;20513;-75
2024/01/19 11:59:44;;;;;;;89.47;83.82;;;;;;;;;;5068093;28;20748;-75
2024/01/19 12:02:27;;;;;;;97.13;91.38;;;;;;;;;;5070831;28;20427;-75
2024/01/19 12:04:56;;;;;;;92.55;87.40;;;;;;;;;;5067386;28;20439;-75
2024/01/19 12:07:30;;;;;;;79.10;74.90;;;;;;;;;;5065973;28;20447;-75
2024/01/19 12:10:07;;;;;;;97.82;91.88;;;;;;;;;;5068502;28;20454;-75
2024/01/19 12:12:34;;;;;;;102.53;96.75;;;;;;;;;;5075390;28;20954;-74
2024/01/19 12:15:03;;;;;;;108.38;101.43;;;;;;;;;;5067656;28;20503;-74
2024/01/19 12:17:36;;;;;;;104.57;98.47;;;;;;;;;;5069114;28;20415;-73
2024/01/19 12:20:09;;;;;;;105.00;99.40;;;;;;;;;;5077172;28;20506;-73
2024/01/19 12:22:37;;;;;;;106.32;100.00;;;;;;;;;;5069899;28;20423;-73
2024/01/19 12:25:22;;;;;;;112.13;105.75;;;;;;;;;;5075485;28;20441;-73
2024/01/19 12:27:49;;;;;;;105.45;99.80;;;;;;;;;;5071835;28;20455;-73
2024/01/19 12:30:17;;;;;;;101.82;96.25;;;;;;;;;;5067060;28;20484;-73
2024/01/19 12:32:47;;;;;;;104.82;99.25;;;;;;;;;;5068264;28;20894;-72
2024/01/19 12:35:19;;;;;;;104.60;99.07;;;;;;;;;;5071017;28;20564;-72
2024/01/19 12:37:46;;;;;;;92.97;87.93;;;;;;;;;;5060170;28;20457;-73
2024/01/19 12:40:17;;;;;;;98.93;93.65;;;;;;;;;;5067809;28;20431;-72
2024/01/19 12:42:45;;;;;;;92.93;87.60;;;;;;;;;;5067160;28;20906;-72
2024/01/19 12:45:13;;;;;;;71.68;66.93;;;;;;;;;;5078861;28;20503;-72
2024/01/19 12:47:43;;;;;;;99.97;94.37;;;;;;;;;;5064592;28;20490;-72
2024/01/19 12:50:13;;;;;;;88.38;83.45;;;;;;;;;;5056615;28;20427;-72
2024/01/19 12:52:51;;;;;;;102.57;96.88;;;;;;;;;;5062280;28;20429;-72
2024/01/19 12:55:31;;;;;;;109.63;103.07;;;;;;;;;;5065620;28;20840;-72
2024/01/19 12:57:59;;;;;;;71.20;67.10;;;;;;;;;;5065095;28;20436;-72
2024/01/19 13:00:33;;;;;;;94.78;89.07;;;;;;;;;;5070070;28;20495;-72
2024/01/19 13:03:01;;;;;;;87.78;82.70;;;;;;;;;;5085223;28;20501;-73
2024/01/19 13:05:30;;;;;;;86.28;80.28;;;;;;;;;;5062107;28;20433;-72
2024/01/19 13:08:01;;;;;;;88.88;83.78;;;;;;;;;;5073661;28;20442;-73
2024/01/19 13:10:29;;;;;;;70.25;66.15;;;;;;;;;;5067626;28;20458;-73
2024/01/19 13:13:06;;;;;;;55.88;52.15;;;;;;;;;;5064603;28;20486;-73
2024/01/19 13:15:34;;;;;;;60.45;56.78;;;;;;;;;;5061074;28;20458;-73
2024/01/19 13:18:07;;;;;;;65.78;61.58;;;;;;;;;;5062713;28;21010;-72
2024/01/19 13:20:35;;;;;;;71.05;66.75;;;;;;;;;;5066213;28;20431;-73
2024/01/19 13:23:02;;;;;;;83.18;78.35;;;;;;;;;;5065900;28;20985;-73
2024/01/19 13:25:29;;;;;;;104.82;99.20;;;;;;;;;;5063701;28;20435;-72
2024/01/19 13:27:59;;;;;;;119.75;113.57;;;;;;;;;;5067828;28;20437;-72
2024/01/19 13:30:28;;;;;;;90.68;84.97;;;;;;;;;;5066654;28;21018;-72
2024/01/19 13:33:02;;;;;;;51.78;48.65;;;;;;;;;;5062863;28;21086;-73
2024/01/19 13:35:30;;;;;;;79.80;75.28;;;;;;;;;;5068258;28;20435;-72
2024/01/19 13:37:59;;;;;;;87.87;82.97;;;;;;;;;;5075465;28;20459;-72
2024/01/19 13:40:29;;;;;;;84.60;79.82;;;;;;;;;;5075620;28;20443;-72
2024/01/19 13:42:56;;;;;;;87.45;82.35;;;;;;;;;;5067469;28;20852;-73
2024/01/19 13:45:24;;;;;;;91.93;86.75;;;;;;;;;;5074432;28;20490;-73
2024/01/19 13:47:53;;;;;;;82.78;78.18;;;;;;;;;;5077567;28;20431;-73
2024/01/19 13:50:20;;;;;;;77.22;73.03;;;;;;;;;;5062262;28;20466;-73
2024/01/19 13:52:47;;;;;;;78.78;74.57;;;;;;;;;;5067022;28;20431;-73
2024/01/19 13:55:15;;;;;;;106.25;100.75;;;;;;;;;;5073221;28;20440;-72
2024/01/19 13:57:42;;;;;;;92.47;87.30;;;;;;;;;;5065018;28;20423;-72
2024/01/19 14:00:09;;;;;;;100.70;95.45;;;;;;;;;;5067771;28;20427;-73
2024/01/19 14:02:37;;;;;;;103.22;97.85;;;;;;;;;;5074244;28;20892;-72
2024/01/19 14:05:05;;;;;;;98.05;92.95;;;;;;;;;;5067548;28;20424;-72
2024/01/19 14:07:32;;;;;;;97.90;92.82;;;;;;;;;;5071152;28;20979;-73
2024/01/19 14:10:00;;;;;;;106.30;99.75;;;;;;;;;;5069639;28;20431;-72
2024/01/19 14:12:30;;;;;;;96.60;90.80;;;;;;;;;;5077875;28;20436;-73
2024/01/19 14:14:58;;;;;;;91.63;86.05;;;;;;;;;;5069598;28;20432;-72
2024/01/19 14:17:25;;;;;;;84.05;79.43;;;;;;;;;;5067653;28;20431;-72